CQX weather

Chatham Municipal Airport
Chatham, Massachusetts, United States

Public forecast

Using degrees Fahrenheit for public forecast. Weather courtesy of forecast.io.

METAR (pilot weather report)

Retrieved 2017/12/15 15:52 UTC (45 minutes ago):

KCQX 151552Z AUTO 00000KT 10SM CLR M03/M09 A3011 RMK AO2 SLP197 T10281094

TAF (pilot weather forecast)

Closest forecast is Barnstable Municipal Boardman Polando Field, 13.1 nm (24.3 km) W. Retrieved 2017/12/15 12:24 UTC (4 hours ago):

TAF KHYA 151120Z 1512/1612 29005KT P6SM BKN200 FM152300 VRB03KT P6SM OVC025 FM160000 VRB03KT 2SM -SN OVC015 FM160700 31011KT P6SM VCSH BKN020 FM160800 30012KT P6SM VCSH BKN050 FM160900 30012G24KT P6SM SCT080